Time;durP1;ratioP1;P1;durP2;ratioP2;P2;SDS_P1;SDS_P2;PMS_P1;PMS_P2;Temp;Humidity;BMP_temperature;BMP_pressure;BME280_temperature;BME280_humidity;BME280_pressure;Samples;Min_cycle;Max_cycle;Signal;HPM_P1;HPM_P2
2022/10/12 00:00:55;;;;;;;7.93;3.57;;;14.10;99.90;;;;;;5032656;28;20538;-70
2022/10/12 00:03:22;;;;;;;7.43;3.50;;;14.00;99.90;;;;;;5035079;28;20950;-70
2022/10/12 00:06:01;;;;;;;9.50;3.70;;;14.00;99.90;;;;;;5032373;28;20466;-70
2022/10/12 00:08:28;;;;;;;5.07;3.40;;;14.00;99.90;;;;;;5035119;28;20452;-70
2022/10/12 00:10:55;;;;;;;10.23;4.33;;;13.90;99.90;;;;;;5033182;28;20798;-70
2022/10/12 00:13:23;;;;;;;6.20;3.60;;;13.90;99.90;;;;;;5035231;28;20534;-69
2022/10/12 00:15:50;;;;;;;8.13;3.80;;;13.80;99.90;;;;;;5034276;28;20510;-70
2022/10/12 00:18:17;;;;;;;6.33;3.60;;;13.70;99.90;;;;;;5036580;28;20476;-70
2022/10/12 00:20:44;;;;;;;6.90;3.93;;;13.80;99.90;;;;;;5033546;28;20456;-71
2022/10/12 00:23:11;;;;;;;6.00;4.17;;;13.90;99.90;;;;;;5036220;28;20502;-70
2022/10/12 00:25:39;;;;;;;8.60;4.90;;;13.90;99.90;;;;;;5034025;28;20776;-70
2022/10/12 00:28:07;;;;;;;9.57;4.57;;;13.80;99.90;;;;;;5036264;28;20452;-71
2022/10/12 00:30:39;;;;;;;6.00;3.80;;;13.60;99.90;;;;;;5034154;28;20883;-71
2022/10/12 00:33:06;;;;;;;5.40;3.33;;;13.60;99.90;;;;;;5036325;28;20526;-71
2022/10/12 00:35:32;;;;;;;7.63;4.60;;;13.50;99.90;;;;;;5036197;28;20460;-71
2022/10/12 00:37:59;;;;;;;6.20;4.03;;;13.40;99.90;;;;;;5040182;28;20502;-70
2022/10/12 00:40:26;;;;;;;5.90;4.70;;;13.40;99.90;;;;;;5036392;28;20805;-71
2022/10/12 00:42:53;;;;;;;3.63;2.57;;;13.40;99.90;;;;;;5040014;28;20483;-71
2022/10/12 00:45:20;;;;;;;5.73;4.27;;;13.50;99.90;;;;;;5036681;28;20518;-70
2022/10/12 00:47:51;;;;;;;5.00;3.57;;;13.60;99.90;;;;;;5039150;28;20514;-70
2022/10/12 00:50:22;;;;;;;7.60;3.87;;;13.80;99.90;;;;;;5036085;28;20483;-70
2022/10/12 00:52:55;;;;;;;8.23;3.57;;;13.70;99.90;;;;;;5039153;28;20583;-70
2022/10/12 00:55:23;;;;;;;4.77;3.17;;;13.60;99.90;;;;;;5035974;28;20495;-71
2022/10/12 00:57:52;;;;;;;10.43;4.30;;;13.50;99.90;;;;;;5038745;28;20510;-70
2022/10/12 01:00:21;;;;;;;8.07;3.73;;;13.60;99.90;;;;;;5037379;28;20456;-71
2022/10/12 01:02:52;;;;;;;6.20;3.73;;;13.70;99.90;;;;;;5039562;28;20487;-71
2022/10/12 01:05:20;;;;;;;4.70;3.80;;;13.60;99.90;;;;;;5038225;28;20522;-70
2022/10/12 01:07:47;;;;;;;6.23;3.33;;;13.60;99.90;;;;;;5039693;28;20488;-71
2022/10/12 01:10:15;;;;;;;8.17;4.23;;;13.60;99.90;;;;;;5037520;28;20745;-71
2022/10/12 01:12:44;;;;;;;5.13;4.13;;;13.70;99.90;;;;;;5039775;28;20597;-71
2022/10/12 01:15:12;;;;;;;7.10;3.60;;;13.70;99.90;;;;;;5039710;28;20459;-70
2022/10/12 01:17:45;;;;;;;4.57;2.73;;;13.80;99.90;;;;;;5037330;28;20460;-71
2022/10/12 01:20:34;;;;;;;4.77;3.33;;;13.80;99.90;;;;;;5039533;28;20869;-71
2022/10/12 01:23:31;;;;;;;5.70;3.60;;;13.80;99.90;;;;;;5038872;28;20788;-70
2022/10/12 01:26:16;;;;;;;9.60;2.60;;;13.80;99.90;;;;;;5036589;28;20460;-70
2022/10/12 01:28:55;;;;;;;6.97;4.33;;;13.70;99.90;;;;;;5039035;28;20510;-71
2022/10/12 01:31:29;;;;;;;11.87;4.07;;;13.70;99.90;;;;;;5037145;28;20447;-70
2022/10/12 01:34:02;;;;;;;7.33;3.40;;;13.70;99.90;;;;;;5038687;28;20505;-70
2022/10/12 01:36:35;;;;;;;5.23;3.40;;;13.60;99.90;;;;;;5037370;28;20514;-70
2022/10/12 01:39:11;;;;;;;5.47;3.53;;;13.60;99.90;;;;;;5038536;28;20514;-70
2022/10/12 01:41:43;;;;;;;5.23;4.23;;;13.60;99.90;;;;;;5036728;28;20931;-70
2022/10/12 01:44:10;;;;;;;5.50;3.60;;;13.70;99.90;;;;;;5038162;28;20805;-70
2022/10/12 01:46:44;;;;;;;5.57;4.07;;;13.70;99.90;;;;;;5035814;28;20771;-71
2022/10/12 01:49:13;;;;;;;7.57;4.83;;;13.70;99.90;;;;;;5038757;28;20455;-71
2022/10/12 01:51:55;;;;;;;6.40;4.07;;;13.70;99.90;;;;;;5035831;28;20514;-70
2022/10/12 01:54:32;;;;;;;4.90;2.57;;;13.50;99.90;;;;;;5038328;28;20452;-71
2022/10/12 01:57:06;;;;;;;5.70;3.60;;;13.40;99.90;;;;;;5036095;28;20452;-71
2022/10/12 01:59:43;;;;;;;6.80;3.60;;;13.40;99.90;;;;;;5038611;28;20452;-70
2022/10/12 02:02:19;;;;;;;8.37;6.00;;;13.40;99.90;;;;;;5036130;28;20834;-70
2022/10/12 02:04:50;;;;;;;6.13;4.37;;;13.40;99.90;;;;;;5038375;28;20471;-70
2022/10/12 02:07:25;;;;;;;4.23;3.10;;;13.30;99.90;;;;;;5036420;28;20510;-71
2022/10/12 02:09:55;;;;;;;5.70;4.27;;;13.30;99.90;;;;;;5038510;28;20439;-71
2022/10/12 02:12:24;;;;;;;7.00;4.20;;;13.40;99.90;;;;;;5038368;28;20456;-70
2022/10/12 02:14:57;;;;;;;7.90;4.47;;;13.40;99.90;;;;;;5037596;28;20448;-70
2022/10/12 02:17:26;;;;;;;5.83;3.87;;;13.40;99.90;;;;;;5035140;28;20456;-70
2022/10/12 02:19:57;;;;;;;6.83;4.30;;;13.40;99.90;;;;;;5038178;28;20445;-71
2022/10/12 02:22:29;;;;;;;8.03;4.47;;;13.30;99.90;;;;;;5035682;28;20522;-71
2022/10/12 02:24:58;;;;;;;8.80;4.00;;;13.30;99.90;;;;;;5038205;28;20448;-71
2022/10/12 02:27:26;;;;;;;8.37;4.73;;;13.20;99.90;;;;;;5035208;28;20495;-71
2022/10/12 02:29:54;;;;;;;7.83;4.37;;;13.20;99.90;;;;;;5037456;28;20776;-70
2022/10/12 02:32:28;;;;;;;7.33;4.60;;;13.20;99.90;;;;;;5035673;28;20492;-70
2022/10/12 02:34:59;;;;;;;7.27;3.83;;;13.20;99.90;;;;;;5037661;28;20451;-70
2022/10/12 02:37:33;;;;;;;6.93;3.77;;;13.00;99.90;;;;;;5035828;28;20537;-70
2022/10/12 02:40:10;;;;;;;6.27;3.10;;;12.90;99.90;;;;;;5037826;28;20448;-70
2022/10/12 02:42:40;;;;;;;7.90;4.87;;;12.90;99.90;;;;;;5034576;28;20523;-70
2022/10/12 02:45:09;;;;;;;9.90;4.53;;;12.90;99.90;;;;;;5037651;28;20448;-70
2022/10/12 02:47:40;;;;;;;6.50;4.47;;;12.80;99.90;;;;;;5036704;28;20456;-70
2022/10/12 02:50:09;;;;;;;7.57;4.23;;;12.70;99.90;;;;;;5037455;28;20448;-70
2022/10/12 02:52:36;;;;;;;9.73;5.03;;;12.90;99.90;;;;;;5034692;28;20522;-71
2022/10/12 02:55:04;;;;;;;10.20;5.93;;;13.00;99.90;;;;;;5037572;28;20484;-70
2022/10/12 02:57:31;;;;;;;8.20;4.10;;;13.00;99.90;;;;;;5034459;28;20970;-70
2022/10/12 02:59:58;;;;;;;7.73;5.00;;;13.10;99.90;;;;;;5036720;28;20510;-71
2022/10/12 03:02:25;;;;;;;7.00;4.10;;;13.10;99.90;;;;;;5036813;28;20546;-71
2022/10/12 03:04:53;;;;;;;6.50;4.20;;;13.10;99.90;;;;;;5037115;28;20518;-71
2022/10/12 03:07:20;;;;;;;6.00;3.07;;;13.10;99.90;;;;;;5037170;28;20456;-71
2022/10/12 03:09:47;;;;;;;4.43;3.70;;;13.20;99.90;;;;;;5036364;28;20449;-71
2022/10/12 03:12:14;;;;;;;8.23;3.63;;;13.20;99.90;;;;;;5034317;28;20811;-70
2022/10/12 03:14:41;;;;;;;3.77;2.53;;;13.20;99.90;;;;;;5035897;28;20616;-70
2022/10/12 03:17:08;;;;;;;7.40;4.73;;;13.30;99.90;;;;;;5033619;28;20510;-70
2022/10/12 03:19:37;;;;;;;6.67;4.73;;;13.30;99.90;;;;;;5035522;28;20456;-70
2022/10/12 03:22:05;;;;;;;5.00;3.67;;;13.30;99.90;;;;;;5034383;28;20484;-70
2022/10/12 03:24:32;;;;;;;4.43;2.50;;;13.30;99.90;;;;;;5033184;28;20821;-70
2022/10/12 03:26:59;;;;;;;5.80;3.40;;;13.30;99.90;;;;;;5034582;28;20444;-71
2022/10/12 03:29:26;;;;;;;7.23;4.07;;;13.20;99.90;;;;;;5034312;28;20452;-71
2022/10/12 03:31:53;;;;;;;6.60;4.10;;;13.30;99.90;;;;;;5035302;28;20457;-70
2022/10/12 03:34:20;;;;;;;7.30;3.57;;;13.40;99.90;;;;;;5033997;28;20506;-70
2022/10/12 03:36:47;;;;;;;4.30;2.43;;;13.30;99.90;;;;;;5036586;28;20850;-70
2022/10/12 03:39:15;;;;;;;3.60;2.87;;;13.30;99.90;;;;;;5035366;28;20452;-70
2022/10/12 03:41:42;;;;;;;4.80;3.20;;;13.30;99.90;;;;;;5037054;28;20510;-70
2022/10/12 03:44:09;;;;;;;9.80;3.60;;;13.30;99.90;;;;;;5033951;28;20985;-71
2022/10/12 03:46:36;;;;;;;8.13;3.33;;;13.30;99.90;;;;;;5036203;28;20444;-71
2022/10/12 03:49:03;;;;;;;3.77;3.17;;;13.20;99.90;;;;;;5033988;28;20506;-70
2022/10/12 03:51:30;;;;;;;6.30;2.97;;;13.20;99.90;;;;;;5036636;28;20880;-70
2022/10/12 03:53:57;;;;;;;8.17;2.90;;;13.20;99.90;;;;;;5034767;28;20546;-71
2022/10/12 03:56:25;;;;;;;6.47;4.17;;;13.20;99.90;;;;;;5036716;28;20444;-71
2022/10/12 03:58:52;;;;;;;6.00;2.23;;;13.30;99.90;;;;;;5033509;28;20514;-71
2022/10/12 04:01:19;;;;;;;4.73;2.80;;;13.30;99.90;;;;;;5036502;28;20510;-71
2022/10/12 04:03:47;;;;;;;5.83;4.13;;;13.40;99.90;;;;;;5033404;28;20528;-70
2022/10/12 04:06:14;;;;;;;6.13;3.30;;;13.50;99.90;;;;;;5035131;28;20899;-70
2022/10/12 04:08:42;;;;;;;4.60;3.47;;;13.40;99.90;;;;;;5030772;28;20518;-71
2022/10/12 04:11:08;;;;;;;5.37;2.73;;;13.30;99.90;;;;;;5034819;28;20444;-70
2022/10/12 04:13:37;;;;;;;6.23;2.33;;;13.20;99.90;;;;;;5031769;28;20472;-71
2022/10/12 04:16:05;;;;;;;4.37;2.80;;;13.20;99.90;;;;;;5034518;28;20451;-71
2022/10/12 04:18:32;;;;;;;5.67;2.30;;;13.20;99.90;;;;;;5031484;28;20483;-71
2022/10/12 04:21:00;;;;;;;3.30;2.37;;;13.40;99.90;;;;;;5034259;28;20444;-70
2022/10/12 04:23:27;;;;;;;9.83;3.50;;;13.50;99.90;;;;;;5033870;28;20522;-71
2022/10/12 04:25:54;;;;;;;6.27;2.83;;;13.70;99.90;;;;;;5034945;28;20460;-70
2022/10/12 04:28:21;;;;;;;5.63;3.47;;;13.80;99.90;;;;;;5031852;28;20460;-71
2022/10/12 04:30:49;;;;;;;10.07;4.13;;;13.80;99.90;;;;;;5035052;28;20570;-71
2022/10/12 04:33:16;;;;;;;4.10;3.50;;;13.90;99.90;;;;;;5033260;28;20456;-72
2022/10/12 04:35:43;;;;;;;6.70;3.40;;;13.90;99.90;;;;;;5035990;28;20455;-71
2022/10/12 04:38:11;;;;;;;4.70;2.63;;;13.90;99.90;;;;;;5036248;28;20511;-71
2022/10/12 04:40:38;;;;;;;7.70;3.40;;;14.00;99.90;;;;;;5033358;28;20460;-72
2022/10/12 04:43:05;;;;;;;5.50;3.03;;;14.10;99.90;;;;;;5036398;28;20561;-72
2022/10/12 04:45:32;;;;;;;9.87;3.70;;;14.20;99.90;;;;;;5033741;28;20452;-71
2022/10/12 04:48:01;;;;;;;5.03;3.30;;;14.20;99.90;;;;;;5036390;28;20522;-72
2022/10/12 04:50:28;;;;;;;6.80;4.60;;;14.20;99.90;;;;;;5033581;28;20752;-71
2022/10/12 04:52:54;;;;;;;6.03;4.30;;;14.20;99.90;;;;;;5036170;28;20999;-73
2022/10/12 04:55:21;;;;;;;7.20;4.70;;;14.00;99.90;;;;;;5036331;28;20460;-73
2022/10/12 04:57:49;;;;;;;6.23;3.87;;;13.80;99.90;;;;;;5033828;28;20756;-72
2022/10/12 05:00:17;;;;;;;6.47;4.87;;;13.60;99.90;;;;;;5034694;28;20555;-72
2022/10/12 05:02:44;;;;;;;6.83;3.93;;;13.50;99.90;;;;;;5032642;28;20534;-73
2022/10/12 05:05:12;;;;;;;8.40;4.10;;;13.30;99.90;;;;;;5035450;28;20452;-72
2022/10/12 05:07:39;;;;;;;5.50;4.07;;;13.20;99.90;;;;;;5033203;28;20526;-72
2022/10/12 05:10:07;;;;;;;8.37;4.73;;;13.20;99.90;;;;;;5034981;28;20807;-73
2022/10/12 05:12:34;;;;;;;5.85;3.85;;;13.20;99.90;;;;;;5032007;28;20453;-72
2022/10/12 05:15:01;;;;;;;7.60;3.87;;;13.30;99.90;;;;;;5035389;28;20248;-73
2022/10/12 05:17:28;;;;;;;5.10;3.30;;;13.40;99.90;;;;;;5033808;28;20456;-72
2022/10/12 05:19:55;;;;;;;8.00;5.10;;;13.50;99.90;;;;;;5034955;28;20448;-72
2022/10/12 05:22:23;;;;;;;4.57;3.67;;;13.50;99.90;;;;;;5035888;28;20452;-70
2022/10/12 05:24:50;;;;;;;5.47;3.23;;;13.50;99.90;;;;;;5038392;28;20757;-71
2022/10/12 05:27:17;;;;;;;8.60;4.70;;;13.40;99.90;;;;;;5039701;28;20487;-71
2022/10/12 05:29:44;;;;;;;7.03;4.53;;;13.30;99.90;;;;;;5038468;28;20452;-71
2022/10/12 05:32:11;;;;;;;7.37;5.10;;;13.20;99.90;;;;;;5035484;28;20452;-71
2022/10/12 05:34:38;;;;;;;9.87;4.97;;;13.20;99.90;;;;;;5037711;28;20942;-71
2022/10/12 05:37:05;;;;;;;8.60;4.97;;;13.30;99.90;;;;;;5034231;28;20510;-72
2022/10/12 05:39:33;;;;;;;6.80;4.00;;;13.30;99.90;;;;;;5038337;28;20741;-71
2022/10/12 05:42:00;;;;;;;10.23;5.50;;;13.30;99.90;;;;;;5038208;28;20452;-71
2022/10/12 05:44:27;;;;;;;5.87;4.60;;;13.30;99.90;;;;;;5037983;28;20542;-71
2022/10/12 05:46:54;;;;;;;11.00;6.17;;;13.20;99.90;;;;;;5035270;28;20479;-71
2022/10/12 05:49:21;;;;;;;9.87;4.60;;;13.20;99.90;;;;;;5038011;28;20452;-71
2022/10/12 05:51:48;;;;;;;7.10;4.90;;;13.20;99.90;;;;;;5035366;28;20977;-71
2022/10/12 05:54:14;;;;;;;8.17;5.80;;;13.20;99.90;;;;;;5037896;28;20478;-71
2022/10/12 05:56:43;;;;;;;8.17;5.30;;;13.20;99.90;;;;;;5036629;28;20453;-71
2022/10/12 05:59:10;;;;;;;9.70;6.00;;;13.10;99.90;;;;;;5037631;28;20452;-71
2022/10/12 06:01:38;;;;;;;10.77;7.80;;;13.10;99.90;;;;;;5038246;28;20452;-71
2022/10/12 06:04:05;;;;;;;6.90;5.33;;;13.10;99.90;;;;;;5033607;28;20551;-71
2022/10/12 06:06:32;;;;;;;8.83;6.77;;;13.20;99.90;;;;;;5037829;28;20503;-71
2022/10/12 06:08:59;;;;;;;18.90;7.60;;;13.20;99.90;;;;;;5034506;28;20533;-71
2022/10/12 06:11:26;;;;;;;17.57;8.70;;;13.20;99.90;;;;;;5037740;28;20445;-72
2022/10/12 06:13:54;;;;;;;10.50;7.50;;;13.20;99.90;;;;;;5031905;28;20491;-71
2022/10/12 06:16:21;;;;;;;10.47;6.20;;;13.20;99.90;;;;;;5034549;28;20461;-75
2022/10/12 06:18:48;;;;;;;14.90;7.40;;;13.30;99.90;;;;;;5034021;28;20464;-75
2022/10/12 06:21:15;;;;;;;12.63;7.23;;;13.60;99.90;;;;;;5037045;28;20460;-75
2022/10/12 06:23:43;;;;;;;15.80;8.47;;;13.70;99.90;;;;;;5031082;28;20540;-74
2022/10/12 06:26:09;;;;;;;15.87;7.77;;;13.70;99.90;;;;;;5034722;28;20480;-72
2022/10/12 06:28:36;;;;;;;12.13;8.17;;;13.70;99.90;;;;;;5034383;28;20817;-71
2022/10/12 06:31:05;;;;;;;16.50;8.50;;;13.60;99.90;;;;;;5036867;28;20444;-71
2022/10/12 06:33:32;;;;;;;10.20;6.53;;;13.50;99.90;;;;;;5030837;28;20899;-71
2022/10/12 06:35:59;;;;;;;15.73;8.60;;;13.40;99.90;;;;;;5035441;28;20445;-72
2022/10/12 06:38:26;;;;;;;13.97;8.87;;;13.40;99.90;;;;;;5036923;28;20451;-72
2022/10/12 06:40:53;;;;;;;15.23;7.23;;;13.40;99.90;;;;;;5033388;28;20460;-71
2022/10/12 06:43:21;;;;;;;13.97;7.13;;;13.40;99.90;;;;;;5034363;28;20480;-71
2022/10/12 06:45:48;;;;;;;15.10;7.90;;;13.40;99.90;;;;;;5032425;28;20472;-71
2022/10/12 06:48:17;;;;;;;10.60;6.00;;;13.40;99.90;;;;;;5036712;28;20880;-71
2022/10/12 06:50:44;;;;;;;14.73;7.63;;;13.40;99.90;;;;;;5032061;28;20565;-71
2022/10/12 06:53:11;;;;;;;13.40;8.80;;;13.40;99.90;;;;;;5034512;28;20502;-70
2022/10/12 06:55:39;;;;;;;15.57;8.87;;;13.40;99.90;;;;;;5031336;28;20479;-71
2022/10/12 06:58:06;;;;;;;14.77;9.23;;;13.50;99.90;;;;;;5015863;28;20445;-71
2022/10/12 07:00:34;;;;;;;12.10;9.10;;;13.50;99.90;;;;;;5025052;28;20456;-73
2022/10/12 07:03:01;;;;;;;11.43;8.00;;;13.50;99.90;;;;;;5038971;28;20556;-72
2022/10/12 07:05:30;;;;;;;13.40;8.80;;;13.50;99.90;;;;;;5033682;28;20453;-71
2022/10/12 07:07:57;;;;;;;12.10;8.23;;;13.50;99.90;;;;;;5029270;28;20468;-72
2022/10/12 07:10:25;;;;;;;10.83;7.77;;;13.50;99.90;;;;;;5033233;28;20464;-72
2022/10/12 07:12:51;;;;;;;14.10;8.20;;;13.70;99.90;;;;;;5033264;28;21025;-72
2022/10/12 07:15:18;;;;;;;13.60;7.80;;;13.70;99.90;;;;;;5029241;28;20530;-71
2022/10/12 07:17:45;;;;;;;14.17;7.97;;;13.70;99.90;;;;;;5036677;28;20509;-71
2022/10/12 07:20:15;;;;;;;8.13;5.43;;;13.70;99.90;;;;;;5032742;28;20452;-72
2022/10/12 07:22:44;;;;;;;16.00;7.50;;;13.70;99.90;;;;;;5034449;28;20468;-71
2022/10/12 07:25:14;;;;;;;14.03;7.90;;;13.70;99.90;;;;;;5031649;28;20488;-71
2022/10/12 07:27:43;;;;;;;13.27;9.60;;;13.70;99.90;;;;;;5017524;28;20555;-72
2022/10/12 07:30:12;;;;;;;11.93;7.40;;;13.80;99.90;;;;;;5018414;28;20583;-72
2022/10/12 07:32:39;;;;;;;15.90;8.90;;;13.80;99.90;;;;;;5035855;28;20447;-72
2022/10/12 07:35:06;;;;;;;11.67;7.83;;;13.90;99.90;;;;;;5033368;28;20507;-71
2022/10/12 07:37:33;;;;;;;11.40;7.40;;;13.90;99.90;;;;;;5033383;28;20522;-71
2022/10/12 07:40:01;;;;;;;14.97;8.30;;;14.10;99.90;;;;;;5033052;28;20522;-72
2022/10/12 07:42:28;;;;;;;11.50;6.60;;;14.20;99.90;;;;;;5037127;28;20437;-72
2022/10/12 07:44:55;;;;;;;12.80;8.53;;;14.30;99.90;;;;;;5030872;28;20498;-72
2022/10/12 07:47:22;;;;;;;12.57;7.37;;;14.30;99.90;;;;;;5033492;28;20464;-72
2022/10/12 07:49:49;;;;;;;9.33;6.67;;;14.40;99.90;;;;;;5032515;28;20482;-71
2022/10/12 07:52:16;;;;;;;10.33;7.37;;;14.50;99.90;;;;;;5036637;28;20444;-71
2022/10/12 07:54:44;;;;;;;11.83;7.23;;;14.60;99.90;;;;;;5034165;28;20489;-72
2022/10/12 07:57:12;;;;;;;18.73;9.57;;;14.70;99.90;;;;;;5036649;28;20452;-71
2022/10/12 07:59:39;;;;;;;13.00;8.47;;;14.80;99.90;;;;;;5030610;28;20468;-72
2022/10/12 08:02:06;;;;;;;14.90;7.37;;;15.10;99.90;;;;;;5018359;28;20445;-71
2022/10/12 08:04:33;;;;;;;11.20;7.10;;;15.20;99.90;;;;;;5013606;28;20533;-71
2022/10/12 08:07:00;;;;;;;11.10;6.77;;;15.30;99.90;;;;;;5025538;28;20780;-72
2022/10/12 08:09:27;;;;;;;12.23;5.73;;;15.20;99.90;;;;;;5032148;28;20460;-72
2022/10/12 08:11:55;;;;;;;12.00;7.20;;;15.30;99.90;;;;;;5036658;28;21172;-72
2022/10/12 08:14:23;;;;;;;9.30;6.73;;;15.50;99.90;;;;;;5033170;28;20997;-72
2022/10/12 08:16:50;;;;;;;9.07;6.10;;;15.70;99.90;;;;;;5034740;28;20471;-74
2022/10/12 08:19:17;;;;;;;16.90;7.47;;;15.60;99.90;;;;;;5031311;28;20465;-72
2022/10/12 08:21:45;;;;;;;13.93;8.27;;;15.50;99.90;;;;;;5035359;28;20514;-71
2022/10/12 08:24:13;;;;;;;10.27;6.50;;;15.40;99.90;;;;;;5032220;28;20488;-71
2022/10/12 08:26:40;;;;;;;12.40;6.50;;;15.30;99.90;;;;;;5034627;28;20506;-73
2022/10/12 08:29:08;;;;;;;13.00;7.37;;;15.30;99.90;;;;;;5031128;28;20942;-71
2022/10/12 08:31:36;;;;;;;9.57;5.17;;;15.30;99.90;;;;;;5033280;28;20495;-72
2022/10/12 08:34:04;;;;;;;11.17;6.20;;;15.20;99.90;;;;;;5030743;28;20476;-72
2022/10/12 08:36:32;;;;;;;11.97;7.87;;;15.30;99.90;;;;;;5033188;28;20452;-71
2022/10/12 08:38:59;;;;;;;11.03;6.13;;;15.30;99.90;;;;;;5030777;28;20449;-71
2022/10/12 08:41:48;;;;;;;9.73;5.77;;;15.40;99.90;;;;;;5016248;28;20508;-71
2022/10/12 08:44:32;;;;;;;10.80;6.20;;;15.60;99.90;;;;;;5029209;28;20488;-72
2022/10/12 08:47:09;;;;;;;9.27;5.87;;;15.60;99.90;;;;;;5020956;28;20518;-72
2022/10/12 08:49:39;;;;;;;11.13;6.43;;;15.60;99.90;;;;;;5030222;28;20474;-72
2022/10/12 08:52:14;;;;;;;10.10;5.40;;;15.50;99.90;;;;;;5032395;28;20464;-72
2022/10/12 08:54:45;;;;;;;10.00;5.00;;;15.50;99.90;;;;;;5025787;28;20468;-71
2022/10/12 08:57:17;;;;;;;11.70;6.00;;;15.50;99.90;;;;;;5036420;28;20463;-71
2022/10/12 08:59:44;;;;;;;11.70;6.57;;;15.60;99.90;;;;;;5033410;28;20464;-71
2022/10/12 09:02:30;;;;;;;12.00;6.60;;;15.60;99.90;;;;;;5037567;28;20537;-71
2022/10/12 09:05:00;;;;;;;7.50;5.50;;;15.60;99.90;;;;;;5034679;28;21066;-72
2022/10/12 09:07:31;;;;;;;10.13;5.80;;;15.70;99.90;;;;;;5037304;28;20891;-71
2022/10/12 09:10:08;;;;;;;11.60;5.37;;;15.80;99.90;;;;;;5034335;28;20464;-71
2022/10/12 09:12:45;;;;;;;14.30;7.07;;;15.90;99.90;;;;;;5034839;28;20467;-71
2022/10/12 09:15:16;;;;;;;8.10;5.13;;;15.90;99.90;;;;;;5024600;28;20542;-71
2022/10/12 09:17:48;;;;;;;8.40;4.77;;;16.00;99.90;;;;;;5022035;28;21003;-71
2022/10/12 09:20:19;;;;;;;12.93;6.23;;;16.10;99.90;;;;;;5018826;28;20449;-71
2022/10/12 09:22:49;;;;;;;9.23;5.90;;;16.00;99.90;;;;;;5025574;28;20468;-71
2022/10/12 09:25:18;;;;;;;6.77;4.90;;;16.10;99.90;;;;;;5034900;28;20484;-70
2022/10/12 09:27:46;;;;;;;7.00;4.97;;;16.20;99.90;;;;;;5033808;28;20475;-71
2022/10/12 09:30:16;;;;;;;9.57;5.67;;;16.10;98.70;;;;;;5035722;28;20468;-71
2022/10/12 09:33:06;;;;;;;8.67;5.30;;;16.10;98.50;;;;;;5033513;28;20896;-71
2022/10/12 09:35:33;;;;;;;12.63;5.00;;;16.00;86.50;;;;;;5030087;28;20464;-71
2022/10/12 09:38:01;;;;;;;9.80;5.77;;;16.00;99.00;;;;;;5029220;28;20469;-71
2022/10/12 09:40:31;;;;;;;10.20;5.30;;;15.90;82.70;;;;;;5027348;28;20456;-71
2022/10/12 09:43:00;;;;;;;7.60;2.77;;;15.90;70.80;;;;;;5032551;28;20452;-72
2022/10/12 09:45:30;;;;;;;9.80;3.67;;;15.80;85.30;;;;;;5034112;28;20537;-71
2022/10/12 09:48:17;;;;;;;7.10;3.80;;;15.80;90.20;;;;;;5024506;28;20518;-71
2022/10/12 09:50:50;;;;;;;10.40;4.10;;;15.80;84.10;;;;;;5034465;28;20602;-70
2022/10/12 09:53:24;;;;;;;8.80;3.53;;;15.70;91.70;;;;;;5035126;28;20567;-71
2022/10/12 09:55:54;;;;;;;8.63;3.93;;;15.70;95.30;;;;;;5031384;28;20496;-72
2022/10/12 09:58:22;;;;;;;12.63;4.13;;;15.70;99.90;;;;;;5034087;28;20468;-71
2022/10/12 10:01:22;;;;;;;13.60;4.77;;;15.80;99.90;;;;;;5035947;28;20546;-72
2022/10/12 10:04:06;;;;;;;8.27;4.20;;;15.90;96.20;;;;;;5035001;28;21236;-72
2022/10/12 10:06:34;;;;;;;6.67;3.47;;;16.10;98.50;;;;;;5036097;28;20470;-71
2022/10/12 10:09:02;;;;;;;10.40;2.83;;;16.10;69.70;;;;;;5032607;28;20464;-73
2022/10/12 10:11:31;;;;;;;5.13;2.07;;;16.10;82.10;;;;;;5036652;28;20467;-73
2022/10/12 10:14:00;;;;;;;9.73;4.27;;;16.10;91.70;;;;;;5030489;28;20554;-73
2022/10/12 10:16:29;;;;;;;10.27;3.73;;;16.00;64.60;;;;;;5037557;28;20950;-72
2022/10/12 10:19:01;;;;;;;10.73;4.40;;;16.00;61.30;;;;;;5035588;28;21127;-73
2022/10/12 10:21:31;;;;;;;10.97;4.07;;;16.10;83.50;;;;;;5037284;28;20470;-72
2022/10/12 10:24:01;;;;;;;6.00;2.60;;;16.20;80.10;;;;;;5037116;28;20491;-73
2022/10/12 10:26:31;;;;;;;6.10;2.90;;;16.20;83.50;;;;;;5036416;28;20456;-73
2022/10/12 10:29:16;;;;;;;7.67;3.70;;;16.20;91.50;;;;;;5037658;28;20460;-72
2022/10/12 10:31:45;;;;;;;5.37;2.80;;;16.40;70.40;;;;;;5035657;28;20456;-73
2022/10/12 10:34:24;;;;;;;5.50;2.83;;;16.40;51.30;;;;;;5036156;28;20903;-72
2022/10/12 10:36:54;;;;;;;4.40;2.53;;;16.50;46.00;;;;;;5030660;28;20490;-72
2022/10/12 10:39:26;;;;;;;7.17;4.10;;;16.40;34.40;;;;;;5034184;28;20471;-72
2022/10/12 10:41:54;;;;;;;6.97;3.87;;;16.40;45.90;;;;;;5032301;28;20468;-72
2022/10/12 10:44:28;;;;;;;4.27;1.87;;;16.50;55.70;;;;;;5034639;28;20476;-72
2022/10/12 10:46:57;;;;;;;9.30;4.73;;;16.60;34.80;;;;;;5036860;28;20444;-72
2022/10/12 10:49:36;;;;;;;3.13;2.07;;;16.60;10.00;;;;;;5033598;28;20464;-72
2022/10/12 10:52:05;;;;;;;4.00;2.53;;;16.40;16.20;;;;;;5017197;28;20449;-72
2022/10/12 10:54:35;;;;;;;4.60;3.00;;;16.50;31.60;;;;;;5029306;28;20449;-72
2022/10/12 10:57:06;;;;;;;4.10;2.30;;;16.60;29.90;;;;;;5035095;28;20449;-73
2022/10/12 10:59:43;;;;;;;5.67;2.50;;;16.70;29.10;;;;;;5032865;28;20448;-72
2022/10/12 11:02:24;;;;;;;5.83;3.40;;;17.00;15.30;;;;;;5034737;28;20965;-72
2022/10/12 11:04:55;;;;;;;4.37;1.80;;;17.00;1.00;;;;;;5031712;28;20488;-70
2022/10/12 11:07:27;;;;;;;4.13;2.53;;;16.90;1.00;;;;;;5035759;28;20894;-73
2022/10/12 11:09:58;;;;;;;3.33;1.97;;;16.90;9.10;;;;;;5030679;28;20523;-73
2022/10/12 11:12:29;;;;;;;5.40;2.77;;;16.80;12.20;;;;;;5035209;28;20456;-73
2022/10/12 11:15:04;;;;;;;5.30;2.70;;;16.90;15.40;;;;;;5033628;28;20949;-73
2022/10/12 11:17:34;;;;;;;3.83;1.83;;;16.90;20.50;;;;;;5034099;28;20460;-73
2022/10/12 11:20:15;;;;;;;5.53;2.23;;;16.90;13.70;;;;;;5014684;28;20465;-73
2022/10/12 11:22:50;;;;;;;7.23;3.00;;;17.10;13.90;;;;;;5035736;28;20511;-71
2022/10/12 11:25:27;;;;;;;6.50;3.37;;;17.20;1.00;;;;;;5030802;28;21012;-71
2022/10/12 11:27:56;;;;;;;2.43;1.30;;;17.20;1.00;;;;;;5037093;28;20816;-71
2022/10/12 11:30:25;;;;;;;6.83;2.27;;;17.30;1.00;;;;;;5033485;28;20462;-71
2022/10/12 11:32:59;;;;;;;4.00;2.60;;;17.30;1.00;;;;;;5035742;28;20506;-70
2022/10/12 11:35:33;;;;;;;3.63;2.70;;;17.30;1.00;;;;;;5035682;28;20455;-71
2022/10/12 11:38:03;;;;;;;12.77;2.50;;;17.40;1.00;;;;;;5033274;28;20471;-71
2022/10/12 11:40:39;;;;;;;6.07;1.50;;;17.40;1.00;;;;;;5033333;28;20460;-71
2022/10/12 11:43:12;;;;;;;4.50;2.63;;;17.40;1.00;;;;;;5033802;28;20459;-71
2022/10/12 11:45:45;;;;;;;4.13;2.03;;;17.30;1.00;;;;;;5029087;28;20484;-71
2022/10/12 11:48:18;;;;;;;8.17;3.20;;;17.40;1.00;;;;;;5024629;28;20535;-72
2022/10/12 11:50:49;;;;;;;4.00;2.67;;;17.30;1.00;;;;;;5032340;28;20539;-71
2022/10/12 11:53:23;;;;;;;3.97;1.90;;;17.40;1.00;;;;;;5033687;28;20529;-71
2022/10/12 11:56:07;;;;;;;5.33;2.53;;;17.40;1.00;;;;;;5027346;28;20534;-72
2022/10/12 11:58:42;;;;;;;6.30;2.50;;;17.40;1.00;;;;;;5023867;28;20461;-72
2022/10/12 12:01:24;;;;;;;2.27;1.37;;;17.40;1.00;;;;;;5034432;28;20498;-72
2022/10/12 12:04:10;;;;;;;4.90;1.60;;;17.40;1.00;;;;;;5028966;28;20522;-72
2022/10/12 12:06:49;;;;;;;5.83;1.90;;;17.40;1.00;;;;;;5035051;28;20480;-72
2022/10/12 12:09:30;;;;;;;3.73;1.93;;;17.40;1.00;;;;;;5035813;28;20506;-73
2022/10/12 12:12:12;;;;;;;3.83;1.90;;;17.50;1.00;;;;;;5024584;28;20460;-72
2022/10/12 12:15:01;;;;;;;4.17;1.70;;;17.60;1.00;;;;;;5029991;28;20488;-73
2022/10/12 12:17:30;;;;;;;3.20;1.97;;;17.60;1.00;;;;;;5028299;28;20484;-73
2022/10/12 12:19:58;;;;;;;3.60;1.50;;;17.50;1.00;;;;;;5028971;28;20471;-73
2022/10/12 12:22:52;;;;;;;3.57;2.40;;;17.50;1.00;;;;;;5032192;28;20451;-72
2022/10/12 12:25:30;;;;;;;7.17;2.00;;;17.60;1.00;;;;;;5028431;28;20986;-73
2022/10/12 12:28:00;;;;;;;6.03;1.90;;;17.60;1.00;;;;;;5028963;28;20525;-73
2022/10/12 12:30:37;;;;;;;3.60;1.47;;;17.60;1.00;;;;;;5034059;28;20952;-72
2022/10/12 12:33:22;;;;;;;3.17;1.83;;;17.60;1.00;;;;;;5038577;28;20448;-73
2022/10/12 12:35:54;;;;;;;2.73;1.47;;;17.70;1.00;;;;;;5034735;28;20505;-73
2022/10/12 12:38:27;;;;;;;3.23;1.40;;;17.70;1.00;;;;;;5038162;28;20441;-72
2022/10/12 12:41:11;;;;;;;4.13;2.60;;;17.90;1.00;;;;;;5038875;28;20512;-72
2022/10/12 12:43:52;;;;;;;4.33;1.57;;;17.90;1.00;;;;;;5036108;28;20483;-72
2022/10/12 12:46:20;;;;;;;3.83;1.43;;;17.80;1.00;;;;;;5039044;28;20508;-72
2022/10/12 12:49:02;;;;;;;2.40;1.60;;;17.60;1.00;;;;;;5033744;28;20510;-72
2022/10/12 12:51:40;;;;;;;2.63;1.17;;;17.70;1.00;;;;;;5035112;28;20454;-75
2022/10/12 12:54:17;;;;;;;3.03;1.27;;;17.70;1.00;;;;;;5036759;28;20578;-72
2022/10/12 12:57:25;;;;;;;2.57;1.10;;;17.70;1.00;;;;;;5033099;28;20486;-72
2022/10/12 13:00:15;;;;;;;2.43;1.20;;;17.90;1.00;;;;;;5010614;28;20508;-72
2022/10/12 13:03:08;;;;;;;3.30;1.73;;;17.90;1.00;;;;;;5033685;28;20456;-71